Time;durP1;ratioP1;P1;durP2;ratioP2;P2;SDS_P1;SDS_P2;PMS_P1;PMS_P2;Temp;Humidity;BMP_temperature;BMP_pressure;BME280_temperature;BME280_humidity;BME280_pressure;Samples;Min_cycle;Max_cycle;Signal;HPM_P1;HPM_P2
2023/07/10 00:00:52;;;;;;;;;9.75;8.50;;;;;21.35;87.50;102000.69;6184238;23;45299;-75
2023/07/10 00:03:18;;;;;;;;;18.25;16.75;;;;;21.33;88.87;102003.50;6181480;23;45295;-75
2023/07/10 00:05:44;;;;;;;;;7.25;7.25;;;;;21.35;89.84;102003.38;6182829;23;45271;-75
2023/07/10 00:08:10;;;;;;;;;10.00;8.50;;;;;21.27;91.72;101995.84;6185327;23;45259;-75
2023/07/10 00:10:35;;;;;;;;;9.33;8.67;;;;;21.30;92.75;102001.03;6157468;23;47549;-75
2023/07/10 00:13:00;;;;;;;;;10.00;10.00;;;;;21.26;92.92;102003.09;6184165;23;46174;-75
2023/07/10 00:15:26;;;;;;;;;11.25;11.25;;;;;21.23;92.86;101997.94;6185321;23;45965;-75
2023/07/10 00:17:52;;;;;;;;;10.75;10.50;;;;;21.34;93.80;102018.66;6184299;23;45343;-75
2023/07/10 00:20:23;;;;;;;;;12.00;10.75;;;;;21.34;92.89;102015.09;6185521;23;45387;-75
2023/07/10 00:22:48;;;;;;;;;12.25;10.75;;;;;21.32;93.80;102014.38;6185306;23;47896;-75
2023/07/10 00:25:17;;;;;;;;;10.50;9.75;;;;;21.16;94.52;101998.47;6189066;23;45667;-75
2023/07/10 00:27:48;;;;;;;;;16.00;14.50;;;;;21.30;94.56;102011.81;6185192;23;45286;-75
2023/07/10 00:30:20;;;;;;;;;15.25;14.00;;;;;21.19;94.38;101993.75;6182892;23;45223;-76
2023/07/10 00:32:46;;;;;;;;;13.75;13.00;;;;;21.33;95.59;102010.72;6157271;23;45322;-76
2023/07/10 00:35:16;;;;;;;;;14.50;14.50;;;;;21.20;95.51;102003.50;6184858;23;45273;-76
2023/07/10 00:37:44;;;;;;;;;14.25;14.25;;;;;21.25;95.17;102016.66;6156841;23;45489;-76
2023/07/10 00:40:22;;;;;;;;;11.75;11.00;;;;;21.24;95.53;102018.47;6182985;23;45872;-75
2023/07/10 00:42:55;;;;;;;;;10.25;10.25;;;;;21.12;96.35;102000.53;6184104;23;45151;-76
2023/07/10 00:45:21;;;;;;;;;17.75;13.75;;;;;21.15;97.21;102012.91;6184493;23;45329;-76
2023/07/10 00:48:02;;;;;;;;;14.00;13.00;;;;;21.10;97.25;102012.38;6184196;23;45226;-76
2023/07/10 00:50:35;;;;;;;;;14.50;12.00;;;;;21.11;97.34;102020.34;6185582;23;45425;-76
2023/07/10 00:53:01;;;;;;;;;22.25;21.75;;;;;21.01;98.66;102005.78;6185041;23;46530;-76
2023/07/10 00:55:31;;;;;;;;;15.00;13.50;;;;;20.97;98.56;101996.25;6185046;23;45264;-76
2023/07/10 00:58:48;;;;;;;;;22.25;20.75;;;;;21.04;96.29;102010.94;6181798;23;45772;-76
2023/07/10 01:01:23;;;;;;;;;23.75;22.50;;;;;21.06;98.46;102010.84;6143415;23;45313;-75
2023/07/10 01:03:51;;;;;;;;;23.00;23.00;;;;;21.05;98.89;102009.97;6185262;23;45378;-76
2023/07/10 01:06:23;;;;;;;;;22.50;21.25;;;;;21.06;98.07;102000.09;6184752;23;45450;-76
2023/07/10 01:09:08;;;;;;;;;23.50;23.50;;;;;20.98;97.54;101995.25;6183056;23;45274;-76
2023/07/10 01:11:36;;;;;;;;;21.50;21.50;;;;;21.02;97.55;101999.44;6181620;23;45440;-76
2023/07/10 01:14:04;;;;;;;;;22.25;20.75;;;;;21.00;98.32;102001.41;6182298;23;45426;-76
2023/07/10 01:16:30;;;;;;;;;21.75;21.75;;;;;20.96;98.90;101996.34;6182344;23;45359;-76
2023/07/10 01:18:56;;;;;;;;;23.50;23.50;;;;;20.91;99.00;101996.66;6184779;23;45355;-76
2023/07/10 01:21:27;;;;;;;;;20.00;20.00;;;;;20.92;98.57;101990.31;6184457;23;45499;-76
2023/07/10 01:23:55;;;;;;;;;16.50;16.50;;;;;20.78;100.00;101983.22;6182701;23;48144;-75
2023/07/10 01:26:21;;;;;;;;;24.50;21.25;;;;;20.85;100.00;102007.84;6183779;23;45369;-75
2023/07/10 01:28:46;;;;;;;;;16.25;16.25;;;;;20.74;99.68;101995.16;6184924;23;45302;-75
2023/07/10 01:31:17;;;;;;;;;11.00;10.25;;;;;20.79;100.00;102006.47;6184700;23;45300;-75
2023/07/10 01:33:47;;;;;;;;;20.50;19.50;;;;;20.75;100.00;102006.78;6184716;23;45301;-74
2023/07/10 01:36:17;;;;;;;;;18.75;15.25;;;;;20.66;100.00;102002.06;6182612;23;45321;-75
2023/07/10 01:38:49;;;;;;;;;14.00;12.75;;;;;20.68;100.00;102003.66;6184168;23;45302;-75
2023/07/10 01:41:25;;;;;;;;;16.75;16.75;;;;;20.72;100.00;102005.16;6183567;23;45314;-75
2023/07/10 01:43:50;;;;;;;;;17.25;16.50;;;;;20.71;100.00;102011.50;6184560;23;45226;-75
2023/07/10 01:46:24;;;;;;;;;13.00;13.00;;;;;20.66;100.00;102011.00;6184704;23;45477;-75
2023/07/10 01:48:53;;;;;;;;;13.00;13.00;;;;;20.66;100.00;102015.50;6184899;23;45280;-75
2023/07/10 01:51:21;;;;;;;;;12.00;12.00;;;;;20.62;100.00;102013.97;6183795;23;45269;-75
2023/07/10 01:53:46;;;;;;;;;8.75;8.75;;;;;20.57;100.00;102011.63;6185198;23;45238;-75
2023/07/10 01:56:15;;;;;;;;;9.33;9.33;;;;;20.58;100.00;102018.72;6181772;23;45383;-75
2023/07/10 01:58:40;;;;;;;;;12.50;11.50;;;;;20.55;100.00;102007.34;6157958;23;45752;-75
2023/07/10 02:01:06;;;;;;;;;11.33;10.00;;;;;20.47;100.00;102005.19;6181987;23;45642;-75
2023/07/10 02:03:31;;;;;;;;;10.00;10.00;;;;;20.48;100.00;102016.78;6184646;23;45285;-75
2023/07/10 02:05:56;;;;;;;;;10.00;8.50;;;;;20.38;100.00;101995.06;6183978;23;45379;-75
2023/07/10 02:08:22;;;;;;;;;12.00;6.67;;;;;20.22;100.00;101979.09;6184692;23;45342;-75
2023/07/10 02:10:47;;;;;;;;;10.75;9.50;;;;;20.38;100.00;102015.69;6183174;23;54755;-75
2023/07/10 02:13:12;;;;;;;;;14.25;12.75;;;;;20.27;100.00;101998.50;6184306;23;46156;-75
2023/07/10 02:15:38;;;;;;;;;15.00;15.00;;;;;20.34;100.00;102019.56;6184069;23;45286;-75
2023/07/10 02:18:03;;;;;;;;;10.67;10.67;;;;;20.30;100.00;102012.66;6183738;23;45412;-75
2023/07/10 02:20:29;;;;;;;;;11.00;9.67;;;;;20.18;100.00;102004.47;6181730;23;45626;-74
2023/07/10 02:22:54;;;;;;;;;12.00;11.33;;;;;20.31;100.00;102014.41;6182250;23;45696;-75
2023/07/10 02:25:19;;;;;;;;;10.33;10.33;;;;;20.31;100.00;102019.78;6183931;23;45368;-75
2023/07/10 02:27:45;;;;;;;;;13.33;13.33;;;;;20.25;100.00;102012.97;6183368;23;45701;-74
2023/07/10 02:30:10;;;;;;;;;11.67;11.67;;;;;20.17;100.00;102001.88;6181625;23;45402;-75
2023/07/10 02:32:35;;;;;;;;;18.75;18.75;;;;;20.17;99.92;102001.88;6183942;23;45330;-74
2023/07/10 02:35:01;;;;;;;;;13.00;13.00;;;;;20.18;100.00;102015.22;6181540;23;45368;-75
2023/07/10 02:37:26;;;;;;;;;11.67;11.67;;;;;20.15;100.00;102014.56;6182578;23;45454;-75
2023/07/10 02:39:51;;;;;;;;;9.67;9.67;;;;;20.14;100.00;102021.75;6184468;23;45627;-75
2023/07/10 02:42:17;;;;;;;;;8.67;8.67;;;;;20.16;100.00;102022.50;6183499;23;45333;-76
2023/07/10 02:44:42;;;;;;;;;7.67;6.33;;;;;20.15;100.00;102030.69;6185951;23;45259;-76
2023/07/10 02:47:07;;;;;;;;;11.00;11.00;;;;;20.07;100.00;102030.31;6185646;23;45143;-75
2023/07/10 02:49:33;;;;;;;;;7.00;6.67;;;;;19.93;100.00;102017.81;6183334;23;45228;-75
2023/07/10 02:51:58;;;;;;;;;12.67;9.00;;;;;19.92;100.00;102009.88;6185262;23;46040;-76
2023/07/10 02:54:23;;;;;;;;;9.67;9.67;;;;;19.99;100.00;102027.31;6185999;23;45223;-75
2023/07/10 02:56:49;;;;;;;;;12.00;10.33;;;;;19.94;100.00;102037.47;6185360;23;45259;-75
2023/07/10 02:59:14;;;;;;;;;13.33;11.67;;;;;19.77;100.00;102011.75;6186621;23;45862;-75
2023/07/10 03:01:39;;;;;;;;;11.67;11.67;;;;;19.86;100.00;102035.28;6158898;23;45510;-74
2023/07/10 03:04:05;;;;;;;;;9.67;8.33;;;;;19.79;100.00;102030.44;6185793;23;45270;-75
2023/07/10 03:06:31;;;;;;;;;10.67;9.67;;;;;19.82;100.00;102038.28;6187794;23;44690;-76
2023/07/10 03:08:58;;;;;;;;;11.33;11.33;;;;;19.79;100.00;102022.41;6186418;23;45358;-75
2023/07/10 03:11:24;;;;;;;;;14.25;14.25;;;;;19.89;100.00;102039.63;6184498;23;45294;-76
2023/07/10 03:13:49;;;;;;;;;10.00;9.33;;;;;19.90;100.00;102042.19;6186117;23;45296;-76
2023/07/10 03:16:16;;;;;;;;;5.67;5.67;;;;;19.77;100.00;102025.16;6185961;23;45258;-76
2023/07/10 03:18:42;;;;;;;;;7.00;7.00;;;;;19.83;100.00;102037.34;6184913;23;45604;-76
2023/07/10 03:21:08;;;;;;;;;7.00;7.00;;;;;19.86;100.00;102046.03;6185673;23;46376;-75
2023/07/10 03:23:33;;;;;;;;;8.33;8.33;;;;;19.84;100.00;102047.97;6185320;23;45314;-76
2023/07/10 03:25:59;;;;;;;;;8.33;6.00;;;;;19.86;100.00;102040.66;6185212;23;45586;-75
2023/07/10 03:28:24;;;;;;;;;6.33;6.33;;;;;19.75;100.00;102033.34;6185611;23;45228;-76
2023/07/10 03:30:50;;;;;;;;;7.00;7.00;;;;;19.81;100.00;102048.16;6183023;23;45778;-75
2023/07/10 03:33:16;;;;;;;;;6.00;5.00;;;;;19.83;100.00;102051.59;6184610;23;45224;-75
2023/07/10 03:35:42;;;;;;;;;11.67;11.00;;;;;19.76;100.00;102039.56;6157748;23;45492;-76
2023/07/10 03:38:09;;;;;;;;;9.00;8.33;;;;;19.74;100.00;102045.03;6185476;23;45350;-76
2023/07/10 03:40:34;;;;;;;;;5.67;5.67;;;;;19.69;100.00;102043.63;6186148;23;45227;-75
2023/07/10 03:43:00;;;;;;;;;8.00;8.00;;;;;19.80;100.00;102050.97;6184455;23;45418;-75
2023/07/10 03:45:25;;;;;;;;;12.67;11.67;;;;;19.77;100.00;102063.63;6185562;23;45429;-76
2023/07/10 03:47:50;;;;;;;;;12.50;12.50;;;;;19.72;100.00;102060.38;6184636;23;45274;-76
2023/07/10 03:50:17;;;;;;;;;9.67;8.33;;;;;19.72;100.00;102065.75;6185711;23;53870;-76
2023/07/10 03:52:43;;;;;;;;;11.67;11.67;;;;;19.70;100.00;102064.09;6184863;23;45215;-75
2023/07/10 03:55:08;;;;;;;;;14.00;13.33;;;;;19.66;100.00;102060.78;6185383;23;45175;-75
2023/07/10 03:57:33;;;;;;;;;7.00;7.00;;;;;19.70;100.00;102075.72;6184736;23;45210;-74
2023/07/10 03:59:59;;;;;;;;;14.75;14.75;;;;;19.22;100.00;102007.25;6183381;23;47906;-75
2023/07/10 04:02:24;;;;;;;;;17.25;16.75;;;;;19.58;100.00;102054.19;6184634;23;45222;-74
2023/07/10 04:04:49;;;;;;;;;8.33;8.33;;;;;19.71;100.00;102068.53;6184877;23;45211;-74
2023/07/10 04:07:17;;;;;;;;;14.50;13.25;;;;;19.63;100.00;102057.44;6159624;23;45206;-76
2023/07/10 04:09:42;;;;;;;;;14.50;14.50;;;;;19.64;100.00;102059.16;6186660;23;46567;-74
2023/07/10 04:12:08;;;;;;;;;13.00;13.00;;;;;19.68;100.00;102074.97;6184466;23;45419;-75
2023/07/10 04:14:37;;;;;;;;;7.33;7.33;;;;;19.71;100.00;102072.06;6186157;23;45307;-76
2023/07/10 04:17:03;;;;;;;;;11.33;11.33;;;;;19.75;100.00;102081.66;6183311;23;45396;-75
2023/07/10 04:19:29;;;;;;;;;12.00;10.33;;;;;19.71;100.00;102071.22;6185313;23;45286;-75
2023/07/10 04:21:54;;;;;;;;;7.67;6.00;;;;;19.77;100.00;102089.59;6185550;23;45301;-75
2023/07/10 04:24:19;;;;;;;;;6.00;6.00;;;;;19.72;100.00;102076.50;6185625;23;45204;-75
2023/07/10 04:26:45;;;;;;;;;9.67;9.67;;;;;19.61;100.00;102072.75;6184928;23;45219;-75
2023/07/10 04:29:12;;;;;;;;;10.33;10.33;;;;;19.73;100.00;102088.94;6186070;23;45502;-75
2023/07/10 04:31:37;;;;;;;;;11.33;9.67;;;;;19.72;100.00;102097.97;6185548;23;45286;-75
2023/07/10 04:34:03;;;;;;;;;9.00;9.00;;;;;19.77;100.00;102100.34;6186301;23;45271;-75
2023/07/10 04:36:28;;;;;;;;;7.00;6.67;;;;;19.75;100.00;102092.41;6157313;23;45393;-75
2023/07/10 04:38:54;;;;;;;;;8.33;7.00;;;;;19.79;100.00;102101.13;6183138;23;47803;-74
2023/07/10 04:41:22;;;;;;;;;9.33;8.00;;;;;19.65;100.00;102071.63;6183344;23;45440;-75
2023/07/10 04:43:48;;;;;;;;;14.75;14.75;;;;;19.82;100.00;102100.06;6185552;23;45270;-75
2023/07/10 04:46:16;;;;;;;;;11.67;10.33;;;;;19.85;100.00;102108.78;6184901;23;45298;-75
2023/07/10 04:48:44;;;;;;;;;12.33;11.00;;;;;19.84;100.00;102095.44;6184828;23;45270;-75
2023/07/10 04:51:10;;;;;;;;;9.67;9.67;;;;;19.90;100.00;102112.00;6185059;23;45238;-75
2023/07/10 04:53:36;;;;;;;;;11.67;9.67;;;;;19.93;100.00;102111.78;6188989;23;45246;-75
2023/07/10 04:56:04;;;;;;;;;9.33;8.33;;;;;19.97;100.00;102117.84;6186609;23;45401;-75
2023/07/10 04:58:54;;;;;;;;;9.33;7.67;;;;;19.96;100.00;102105.38;6188237;23;46569;-75
2023/07/10 05:01:23;;;;;;;;;13.00;10.00;;;;;19.97;100.00;102104.41;6188281;23;45215;-75
2023/07/10 05:03:49;;;;;;;;;15.25;11.75;;;;;20.02;100.00;102110.34;6187491;23;45264;-75
2023/07/10 05:06:15;;;;;;;;;10.67;10.33;;;;;19.98;100.00;102101.63;6185757;23;45267;-75
2023/07/10 05:08:41;;;;;;;;;8.00;8.00;;;;;20.10;100.00;102111.56;6183371;23;47855;-76
2023/07/10 05:11:06;;;;;;;;;10.33;9.33;;;;;20.15;100.00;102111.25;6184152;23;45227;-76
2023/07/10 05:13:32;;;;;;;;;6.67;6.67;;;;;20.14;100.00;102106.84;6185657;23;45619;-76
2023/07/10 05:15:58;;;;;;;;;9.33;8.67;;;;;20.14;100.00;102099.66;6184761;23;45381;-75
2023/07/10 05:18:25;;;;;;;;;8.67;7.67;;;;;20.12;100.00;102092.66;6184949;23;45438;-76
2023/07/10 05:20:51;;;;;;;;;9.33;9.33;;;;;20.24;100.00;102111.50;6184067;23;45311;-75
2023/07/10 05:23:17;;;;;;;;;19.25;19.00;;;;;20.27;98.72;102100.59;6157961;23;45301;-76
2023/07/10 05:25:55;;;;;;;;;11.75;11.75;;;;;20.42;98.11;102116.66;6184950;23;45256;-76
2023/07/10 05:28:20;;;;;;;;;16.75;13.75;;;;;20.44;97.09;102114.72;6182637;23;45755;-75
2023/07/10 05:30:45;;;;;;;;;15.25;14.00;;;;;20.38;94.25;102099.00;6184766;23;45297;-75
2023/07/10 05:33:11;;;;;;;;;13.00;13.00;;;;;20.42;94.67;102087.94;6184737;23;46944;-75
2023/07/10 05:35:36;;;;;;;;;21.00;20.75;;;;;20.58;92.25;102110.09;6156699;23;45302;-76
2023/07/10 05:38:01;;;;;;;;;19.75;19.25;;;;;20.65;92.71;102121.31;6183901;23;46385;-76
2023/07/10 05:40:27;;;;;;;;;21.25;19.75;;;;;20.60;93.20;102096.56;6185023;23;45211;-76
2023/07/10 05:42:52;;;;;;;;;14.25;12.50;;;;;20.71;93.84;102119.06;6183570;23;45722;-76
2023/07/10 05:45:18;;;;;;;;;22.75;21.75;;;;;20.81;90.16;102111.22;6184458;23;45455;-76
2023/07/10 05:47:43;;;;;;;;;7.00;7.00;;;;;20.83;89.62;102119.19;6157624;23;47795;-75
2023/07/10 05:50:08;;;;;;;;;12.25;11.00;;;;;20.88;88.79;102120.59;6184103;23;45231;-75
2023/07/10 05:52:34;;;;;;;;;14.50;14.50;;;;;20.91;91.41;102104.22;6183664;23;45243;-75
2023/07/10 05:54:59;;;;;;;;;8.75;8.75;;;;;20.94;90.70;102106.72;6157417;23;45394;-75
2023/07/10 05:57:24;;;;;;;;;10.75;10.75;;;;;20.98;87.81;102108.22;6183513;23;46209;-76
2023/07/10 05:59:50;;;;;;;;;14.50;13.75;;;;;21.04;88.26;102112.34;6182559;23;45337;-76
2023/07/10 06:02:15;;;;;;;;;12.75;12.75;;;;;21.01;94.49;102099.06;6183352;23;45281;-75
2023/07/10 06:04:40;;;;;;;;;13.50;12.75;;;;;21.05;88.95;102095.19;6184628;23;45362;-76
2023/07/10 06:07:06;;;;;;;;;5.75;5.75;;;;;21.18;86.60;102109.53;6182790;23;46609;-76
2023/07/10 06:09:31;;;;;;;;;12.50;12.50;;;;;21.27;90.45;102119.66;6183365;23;45326;-76
2023/07/10 06:11:57;;;;;;;;;17.50;16.50;;;;;21.20;87.80;102099.56;6183062;23;45670;-75
2023/07/10 06:14:22;;;;;;;;;16.75;13.25;;;;;21.33;86.22;102107.59;6158106;23;45239;-75
2023/07/10 06:16:47;;;;;;;;;17.50;14.50;;;;;21.40;88.61;102116.97;6184567;23;46309;-75
2023/07/10 06:19:13;;;;;;;;;12.67;12.67;;;;;21.38;90.32;102094.66;6157733;23;52999;-75
2023/07/10 06:21:38;;;;;;;;;15.25;13.75;;;;;21.49;91.02;102108.22;6184950;23;45162;-75
2023/07/10 06:24:04;;;;;;;;;6.25;6.25;;;;;21.56;88.97;102109.50;6186039;23;45382;-75
2023/07/10 06:26:29;;;;;;;;;6.50;5.50;;;;;21.60;85.48;102116.38;6184428;23;46717;-75
2023/07/10 06:28:55;;;;;;;;;9.75;8.25;;;;;21.68;85.48;102117.56;6158599;23;45365;-75
2023/07/10 06:31:20;;;;;;;;;18.25;15.75;;;;;21.72;85.54;102118.19;6185517;23;45482;-75
2023/07/10 06:33:46;;;;;;;;;11.33;7.67;;;;;21.73;84.73;102106.44;6183988;23;45294;-75
2023/07/10 06:36:11;;;;;;;;;5.75;5.75;;;;;21.83;82.53;102108.34;6183236;23;45270;-75
2023/07/10 06:38:37;;;;;;;;;6.50;5.50;;;;;21.85;83.06;102108.25;6184726;23;49881;-76
2023/07/10 06:41:05;;;;;;;;;8.67;8.00;;;;;22.00;81.49;102117.03;6182901;23;45370;-76
2023/07/10 06:43:31;;;;;;;;;7.75;7.75;;;;;22.08;85.42;102117.34;6185222;23;45473;-75
2023/07/10 06:45:56;;;;;;;;;10.75;8.25;;;;;22.13;80.74;102118.72;6182325;23;53292;-76
2023/07/10 06:48:21;;;;;;;;;8.50;7.75;;;;;22.18;78.53;102113.84;6183099;23;45298;-75
2023/07/10 06:50:52;;;;;;;;;8.75;8.50;;;;;22.24;79.29;102113.38;6182661;23;45320;-75
2023/07/10 06:53:18;;;;;;;;;8.25;7.25;;;;;22.23;79.26;102098.19;6185800;23;45508;-75
2023/07/10 06:55:44;;;;;;;;;7.50;7.50;;;;;22.27;78.09;102096.97;6185303;23;45251;-75
2023/07/10 06:58:12;;;;;;;;;8.50;8.50;;;;;22.38;77.72;102093.47;6186161;23;45560;-75
2023/07/10 07:00:37;;;;;;;;;5.00;5.00;;;;;22.43;77.41;102087.72;6188700;23;45695;-75
2023/07/10 07:03:03;;;;;;;;;6.25;6.25;;;;;22.63;75.60;102105.94;6187029;23;45444;-75
2023/07/10 07:05:28;;;;;;;;;11.50;10.25;;;;;22.69;77.23;102114.44;6162558;23;46814;-75
2023/07/10 07:07:53;;;;;;;;;5.75;4.50;;;;;22.59;76.21;102094.50;6161974;23;45829;-75
2023/07/10 07:10:19;;;;;;;;;11.75;9.00;;;;;22.85;76.26;102119.50;6188269;23;46363;-75
2023/07/10 07:12:44;;;;;;;;;10.25;7.25;;;;;22.91;75.41;102112.75;6187219;23;50863;-76
2023/07/10 07:15:11;;;;;;;;;4.00;4.00;;;;;22.94;73.95;102105.28;6185789;23;46111;-76
2023/07/10 07:17:37;;;;;;;;;6.75;6.75;;;;;23.06;74.29;102098.94;6182626;23;45255;-75
2023/07/10 07:20:03;;;;;;;;;10.00;8.75;;;;;23.15;73.65;102090.09;6184057;23;45386;-76
2023/07/10 07:22:28;;;;;;;;;6.25;6.25;;;;;23.30;73.24;102104.22;6183775;23;45359;-76
2023/07/10 07:24:54;;;;;;;;;9.00;7.25;;;;;23.41;73.69;102106.09;6185578;23;45179;-76
2023/07/10 07:27:19;;;;;;;;;6.75;5.00;;;;;23.51;72.15;102099.81;6184780;23;45255;-76
2023/07/10 07:29:44;;;;;;;;;6.75;5.25;;;;;23.59;70.94;102101.91;6186122;23;45287;-76
2023/07/10 07:32:10;;;;;;;;;9.75;7.25;;;;;23.71;73.39;102098.22;6185578;23;45429;-76
2023/07/10 07:34:36;;;;;;;;;7.25;6.75;;;;;23.86;71.41;102105.03;6185750;23;45321;-76
2023/07/10 07:37:04;;;;;;;;;8.33;8.33;;;;;23.80;70.25;102075.81;6157736;23;45603;-76
2023/07/10 07:39:31;;;;;;;;;6.25;6.25;;;;;24.03;72.18;102095.53;6185904;23;45264;-76
2023/07/10 07:41:57;;;;;;;;;13.50;10.75;;;;;24.12;68.30;102102.91;6182752;23;45530;-76
2023/07/10 07:44:22;;;;;;;;;9.50;9.00;;;;;24.14;69.63;102082.91;6183640;23;45593;-76
2023/07/10 07:46:47;;;;;;;;;9.25;9.25;;;;;24.34;69.55;102090.16;6184512;23;45460;-76
2023/07/10 07:49:13;;;;;;;;;3.75;3.75;;;;;24.52;69.47;102085.03;6185662;23;45247;-76
2023/07/10 07:51:38;;;;;;;;;14.75;13.25;;;;;24.64;68.65;102092.09;6184899;23;45298;-76
2023/07/10 07:54:07;;;;;;;;;8.00;8.00;;;;;24.80;69.55;102094.38;6185941;23;45607;-76
2023/07/10 07:56:32;;;;;;;;;9.25;9.25;;;;;24.82;69.47;102070.75;6184856;23;45311;-76
2023/07/10 07:59:00;;;;;;;;;9.50;9.50;;;;;25.05;67.72;102072.31;6185918;23;45210;-76
2023/07/10 08:01:26;;;;;;;;;11.25;11.25;;;;;25.22;66.58;102085.22;6185316;23;45425;-76
2023/07/10 08:03:51;;;;;;;;;12.00;12.00;;;;;25.30;65.10;102082.69;6185416;23;46049;-76
2023/07/10 08:06:17;;;;;;;;;12.00;11.25;;;;;25.38;65.28;102076.59;6185724;23;45294;-76
2023/07/10 08:08:42;;;;;;;;;31.00;28.33;;;;;25.51;63.47;102071.81;6183777;23;45261;-76
2023/07/10 08:11:08;;;;;;;;;28.25;28.00;;;;;25.56;63.22;102063.25;6184532;23;45489;-76
2023/07/10 08:13:34;;;;;;;;;29.50;29.00;;;;;25.75;62.47;102074.16;6185565;23;47193;-76
2023/07/10 08:15:59;;;;;;;;;25.00;25.00;;;;;25.77;60.57;102069.44;6182918;23;45290;-76
2023/07/10 08:18:25;;;;;;;;;36.50;34.00;;;;;25.82;61.72;102056.31;6185568;23;45611;-76
2023/07/10 08:20:50;;;;;;;;;26.00;25.00;;;;;26.01;60.23;102066.34;6183258;23;45281;-76
2023/07/10 08:23:16;;;;;;;;;109.25;107.25;;;;;26.05;56.20;102070.47;6184969;23;45739;-76
2023/07/10 08:25:41;;;;;;;;;113.00;113.00;;;;;26.04;55.41;102063.34;6185711;23;45306;-76
2023/07/10 08:28:07;;;;;;;;;22.75;20.75;;;;;26.01;56.18;102053.66;6184985;23;45306;-76
2023/07/10 08:30:32;;;;;;;;;145.67;145.67;;;;;26.07;55.93;102053.09;6185644;23;45295;-76
2023/07/10 08:32:58;;;;;;;;;28.25;27.50;;;;;26.14;57.50;102059.66;6182857;23;46665;-76
2023/07/10 08:35:23;;;;;;;;;140.33;140.33;;;;;26.35;56.16;102073.09;6185793;23;45244;-76
2023/07/10 08:37:50;;;;;;;;;36.00;33.00;;;;;26.50;55.72;102076.22;6183289;23;45267;-76
2023/07/10 08:40:33;;;;;;;;;15.33;15.33;;;;;26.64;55.53;102076.63;6185059;23;45415;-76
2023/07/10 08:43:16;;;;;;;;;171.00;164.67;;;;;26.64;50.80;102059.47;6157258;23;45389;-76
2023/07/10 08:45:46;;;;;;;;;42.33;37.67;;;;;26.84;54.69;102078.34;6184538;23;45189;-76
2023/07/10 08:48:32;;;;;;;;;141.00;139.67;;;;;26.91;51.19;102067.75;6185609;23;45218;-75
2023/07/10 08:51:07;;;;;;;;;27.33;26.67;;;;;26.92;53.26;102064.03;6183368;23;45456;-76
2023/07/10 08:53:37;;;;;;;;;59.33;47.33;;;;;26.98;52.74;102068.88;6185355;23;45371;-76
2023/07/10 08:56:14;;;;;;;;;59.00;48.50;;;;;27.04;53.33;102060.13;6184571;23;45326;-76
2023/07/10 08:58:39;;;;;;;;;30.00;28.33;;;;;27.22;54.59;102069.22;6183128;23;45257;-76
2023/07/10 09:01:20;;;;;;;;;50.00;40.67;;;;;27.29;52.23;102048.56;6185350;23;45229;-76
2023/07/10 09:03:49;;;;;;;;;59.00;46.50;;;;;27.45;53.19;102045.25;6186501;23;45694;-76
2023/07/10 09:06:35;;;;;;;;;62.80;51.40;;;;;27.46;51.14;102035.22;6188693;23;45407;-76
2023/07/10 09:09:13;;;;;;;;;140.00;132.75;;;;;27.52;49.76;102031.91;6187313;23;45356;-77
2023/07/10 09:11:39;;;;;;;;;65.20;50.80;;;;;27.72;49.36;102052.50;6186467;23;45294;-75
2023/07/10 09:14:23;;;;;;;;;63.25;52.00;;;;;27.74;49.03;102054.09;6187256;23;47873;-76
2023/07/10 09:16:53;;;;;;;;;63.75;51.25;;;;;27.85;50.45;102047.53;6186730;23;45357;-76
2023/07/10 09:19:20;;;;;;;;;63.50;52.25;;;;;27.97;49.15;102048.19;6189257;23;45222;-76
2023/07/10 09:21:46;;;;;;;;;170.00;81.60;;;;;27.88;46.16;102017.31;6185861;23;45436;-76
2023/07/10 09:24:18;;;;;;;;;66.40;53.00;;;;;28.00;48.64;102037.00;6157680;23;45318;-76
2023/07/10 09:26:44;;;;;;;;;196.50;86.00;;;;;28.15;45.73;102055.38;6156467;23;45339;-76
2023/07/10 09:29:09;;;;;;;;;275.25;58.25;;;;;28.28;45.55;102058.53;6159024;23;45180;-76
2023/07/10 09:31:52;;;;;;;;;64.50;52.75;;;;;28.32;46.62;102053.66;6185397;23;45561;-76
2023/07/10 09:34:24;;;;;;;;;71.60;58.20;;;;;28.49;47.37;102052.78;6182940;23;45638;-76
2023/07/10 09:36:54;;;;;;;;;2794.20;2764.00;;;;;28.55;44.76;102043.09;6183156;23;45284;-76
2023/07/10 09:39:26;;;;;;;;;275.00;70.75;;;;;28.55;44.82;102045.84;6185413;23;45328;-77
2023/07/10 09:41:51;;;;;;;;;119.80;70.00;;;;;28.58;46.10;102031.91;6184056;23;45222;-77
2023/07/10 09:44:20;;;;;;;;;1437.50;1358.75;;;;;28.63;45.28;102041.28;6183044;23;46808;-77
2023/07/10 09:46:45;;;;;;;;;64.00;52.75;;;;;28.71;46.40;102041.38;6184737;23;45223;-76
2023/07/10 09:49:23;;;;;;;;;59.67;49.00;;;;;28.84;48.59;102047.25;6184890;23;45453;-76
2023/07/10 09:52:00;;;;;;;;;63.80;52.60;;;;;28.97;46.32;102041.38;6185756;23;45247;-76
2023/07/10 09:54:38;;;;;;;;;2552.60;2449.00;;;;;29.04;44.82;102037.00;6184082;23;46965;-76
2023/07/10 09:57:12;;;;;;;;;277.25;84.50;;;;;29.18;44.32;102044.56;6185209;23;45189;-76
2023/07/10 09:59:51;;;;;;;;;139.50;31.75;;;;;29.23;43.37;102031.28;6186007;23;45231;-77
2023/07/10 10:02:33;;;;;;;;;0.67;0.00;;;;;29.38;43.35;102048.75;6185880;23;45219;-76
2023/07/10 10:05:28;;;;;;;;;251.00;81.80;;;;;29.48;43.46;102045.91;6185746;23;45315;-76
2023/07/10 10:08:02;;;;;;;;;0.00;0.00;;;;;29.59;42.69;102045.59;6163700;23;45538;-77
2023/07/10 10:10:33;;;;;;;;;0.00;0.00;;;;;29.59;41.90;102037.41;6186695;23;45294;-77
2023/07/10 10:13:22;;;;;;;;;0.00;0.00;;;;;29.60;41.78;102033.69;6185149;23;45322;-76
2023/07/10 10:15:54;;;;;;;;;11.00;1.00;;;;;29.72;43.27;102028.75;6186421;23;46622;-77
2023/07/10 10:18:41;;;;;;;;;0.00;0.00;;;;;29.88;43.28;102037.00;6186197;23;45413;-77
2023/07/10 10:21:11;;;;;;;;;3467.33;3467.33;;;;;29.84;40.93;102041.94;6185822;23;45264;-77
2023/07/10 10:23:38;;;;;;;;;3453.67;3453.67;;;;;29.86;40.58;102029.00;6158817;23;45243;-76
2023/07/10 10:26:31;;;;;;;;;3492.00;3492.00;;;;;29.94;41.86;102030.91;6185217;23;45470;-77
2023/07/10 10:29:14;;;;;;;;;215.80;58.20;;;;;30.12;40.34;102042.50;6174142;23;45228;-76
2023/07/10 10:31:44;;;;;;;;;3462.67;3462.67;;;;;30.20;39.66;102042.47;6183868;23;45259;-76
2023/07/10 10:34:26;;;;;;;;;3440.25;3440.25;;;;;30.12;40.12;102038.91;6158221;23;45351;-76
2023/07/10 10:37:18;;;;;;;;;3445.00;3445.00;;;;;30.10;39.59;102033.63;6183139;23;46908;-76
2023/07/10 10:40:21;;;;;;;;;3410.20;3410.20;;;;;30.11;43.14;102016.22;6183431;23;45889;-77
2023/07/10 10:43:19;;;;;;;;;3435.00;3435.00;;;;;30.29;42.06;102016.06;6185025;23;45262;-77
2023/07/10 10:45:54;;;;;;;;;3430.00;3430.00;;;;;30.43;42.65;102021.69;6182322;23;45148;-77
2023/07/10 10:48:24;;;;;;;;;3422.20;3422.20;;;;;30.52;43.16;102019.81;6158598;23;47908;-78
2023/07/10 10:50:52;;;;;;;;;0.00;0.00;;;;;30.68;40.32;102018.94;6186259;23;45315;-77
2023/07/10 10:53:20;;;;;;;;;3413.75;3413.75;;;;;30.80;39.95;102025.72;6183879;23;45284;-77
2023/07/10 10:56:14;;;;;;;;;3434.50;3434.50;;;;;30.81;39.70;102025.56;6185625;23;45497;-77
2023/07/10 10:59:17;;;;;;;;;3448.00;3448.00;;;;;30.90;38.11;102023.66;6151558;23;45465;-77
2023/07/10 11:02:27;;;;;;;;;3401.00;3401.00;;;;;30.90;37.65;102024.50;6185085;23;45370;-77
2023/07/10 11:05:10;;;;;;;;;3448.33;3448.33;;;;;30.92;39.12;102016.16;6156376;23;45657;-77
2023/07/10 11:07:39;;;;;;;;;3440.25;3440.25;;;;;30.83;37.77;102009.00;6184644;23;45466;-77
2023/07/10 11:10:15;;;;;;;;;3424.75;3424.75;;;;;30.90;37.54;102015.47;6158502;23;47648;-77
2023/07/10 11:12:41;;;;;;;;;3420.60;3420.60;;;;;30.76;36.30;102010.75;6184653;23;45349;-77
2023/07/10 11:15:17;;;;;;;;;3437.75;3437.75;;;;;30.63;37.91;102000.31;6158206;23;45488;-77
2023/07/10 11:17:48;;;;;;;;;3392.40;3392.40;;;;;30.61;35.67;101999.66;6182539;23;45718;-77